createdAt,value
2018-09-12T00:01:03.056Z,71.30
2018-09-12T00:03:31.508Z,71.30
2018-09-12T00:06:00.123Z,71.30
2018-09-12T00:08:28.696Z,71.40
2018-09-12T00:10:57.428Z,71.30
2018-09-12T00:13:25.844Z,70.10
2018-09-12T00:15:54.646Z,71.30
2018-09-12T00:18:23.211Z,71.30
2018-09-12T00:20:51.613Z,71.50
2018-09-12T00:23:20.180Z,71.40
2018-09-12T00:25:48.733Z,71.30
2018-09-12T00:28:17.165Z,71.40
2018-09-12T00:30:45.684Z,71.40
2018-09-12T00:33:14.152Z,71.40
2018-09-12T00:35:42.644Z,71.50
2018-09-12T00:38:10.995Z,71.50
2018-09-12T00:40:39.539Z,71.30
2018-09-12T00:43:08.447Z,71.40
2018-09-12T00:45:42.243Z,71.50
2018-09-12T00:48:10.785Z,71.50
2018-09-12T00:50:39.540Z,71.40
2018-09-12T00:53:07.933Z,71.40
2018-09-12T00:55:42.334Z,71.00
2018-09-12T00:58:12.014Z,71.50
2018-09-12T01:00:53.032Z,71.60
2018-09-12T01:03:21.453Z,71.50
2018-09-12T01:05:50.000Z,71.60
2018-09-12T01:08:18.694Z,71.50
2018-09-12T01:10:47.330Z,71.30
2018-09-12T01:13:16.278Z,71.70
2018-09-12T01:15:44.886Z,71.50
2018-09-12T01:18:19.399Z,71.60
2018-09-12T01:20:53.544Z,71.60
2018-09-12T01:23:22.609Z,71.70
2018-09-12T01:25:51.339Z,71.60
2018-09-12T01:28:19.979Z,71.40
2018-09-12T01:30:48.398Z,71.80
2018-09-12T01:33:16.942Z,71.70
2018-09-12T01:35:45.573Z,71.70
2018-09-12T01:38:14.120Z,71.70
2018-09-12T01:40:42.576Z,71.60
2018-09-12T01:43:11.101Z,71.80
2018-09-12T01:45:39.809Z,71.70
2018-09-12T01:48:08.513Z,71.80
2018-09-12T01:50:36.919Z,71.70
2018-09-12T01:53:05.592Z,71.70
2018-09-12T01:55:34.021Z,71.70
2018-09-12T01:58:02.560Z,71.80
2018-09-12T02:00:36.336Z,71.90
2018-09-12T02:03:05.041Z,71.70
2018-09-12T02:05:33.763Z,72.00
2018-09-12T02:08:02.238Z,72.00
2018-09-12T02:10:30.697Z,72.00
2018-09-12T02:12:59.212Z,72.00
2018-09-12T02:15:27.660Z,72.00
2018-09-12T02:17:56.380Z,72.10
2018-09-12T02:20:24.886Z,72.00
2018-09-12T02:22:53.546Z,72.10
2018-09-12T02:25:21.985Z,72.10
2018-09-12T02:27:50.412Z,71.90
2018-09-12T02:30:18.953Z,72.10
2018-09-12T02:32:47.633Z,72.20
2018-09-12T02:35:16.500Z,72.10
2018-09-12T02:37:45.219Z,71.70
2018-09-12T02:40:14.000Z,72.20
2018-09-12T02:42:42.588Z,72.20
2018-09-12T02:45:11.564Z,72.30
2018-09-12T02:47:40.539Z,72.30
2018-09-12T02:50:11.940Z,72.30
2018-09-12T02:52:40.454Z,72.20
2018-09-12T02:55:10.502Z,72.30
2018-09-12T02:57:39.240Z,72.40
2018-09-12T03:00:08.175Z,72.10
2018-09-12T03:02:36.955Z,72.40
2018-09-12T03:05:05.738Z,72.40
2018-09-12T03:07:34.356Z,71.30
2018-09-12T03:10:03.027Z,72.40
2018-09-12T03:12:31.848Z,72.40
2018-09-12T03:15:00.635Z,72.50
2018-09-12T03:17:29.122Z,72.40
2018-09-12T03:19:57.626Z,72.50
2018-09-12T03:22:26.323Z,72.10
2018-09-12T03:24:54.721Z,72.50
2018-09-12T03:27:23.241Z,72.40
2018-09-12T03:29:52.110Z,72.50
2018-09-12T03:32:20.822Z,72.60
2018-09-12T03:34:49.251Z,72.60
2018-09-12T03:37:17.770Z,72.60
2018-09-12T03:39:46.456Z,72.60
2018-09-12T03:42:15.660Z,72.60
2018-09-12T03:44:44.430Z,72.60
2018-09-12T03:47:13.118Z,72.60
2018-09-12T03:49:41.780Z,72.70
2018-09-12T03:52:10.336Z,72.60
2018-09-12T03:54:38.897Z,72.70
2018-09-12T03:57:07.549Z,72.70
2018-09-12T03:59:35.967Z,72.70
2018-09-12T04:02:04.381Z,72.50
2018-09-12T04:04:32.750Z,72.60
2018-09-12T04:07:02.329Z,72.80
2018-09-12T04:09:31.289Z,72.70
2018-09-12T04:11:59.682Z,72.80
2018-09-12T04:14:28.181Z,72.70
2018-09-12T04:16:56.719Z,72.70
2018-09-12T04:19:25.145Z,72.90
2018-09-12T04:21:53.669Z,72.70
2018-09-12T04:24:22.478Z,72.90
2018-09-12T04:26:51.053Z,73.00
2018-09-12T04:29:19.470Z,72.70
2018-09-12T04:31:47.909Z,72.90
2018-09-12T04:34:16.384Z,73.00
2018-09-12T04:36:44.938Z,73.00
2018-09-12T04:39:13.737Z,73.00
2018-09-12T04:41:42.303Z,72.70
2018-09-12T04:44:10.815Z,72.80
2018-09-12T04:46:39.261Z,73.00
2018-09-12T04:49:08.064Z,73.00
2018-09-12T04:51:42.105Z,72.80
2018-09-12T04:54:10.588Z,73.00
2018-09-12T04:56:39.067Z,73.00
2018-09-12T04:59:07.651Z,73.10
2018-09-12T05:01:36.022Z,72.80
2018-09-12T05:04:05.078Z,72.70
2018-09-12T05:06:33.873Z,73.10
2018-09-12T05:09:02.521Z,73.10
2018-09-12T05:11:31.041Z,73.10
2018-09-12T05:13:59.516Z,72.80
2018-09-12T05:16:28.001Z,72.90
2018-09-12T05:18:56.396Z,72.50
2018-09-12T05:21:24.980Z,72.70
2018-09-12T05:23:53.589Z,73.00
2018-09-12T05:26:22.142Z,72.90
2018-09-12T05:28:50.714Z,72.90
2018-09-12T05:31:19.604Z,73.10
2018-09-12T05:33:48.151Z,72.80
2018-09-12T05:36:16.669Z,72.60
2018-09-12T05:38:45.162Z,72.80
2018-09-12T05:41:13.576Z,72.80
2018-09-12T05:43:42.064Z,72.60
2018-09-12T05:46:10.426Z,73.20
2018-09-12T05:48:39.002Z,73.20
2018-09-12T05:51:07.499Z,73.00
2018-09-12T05:53:35.844Z,72.80
2018-09-12T05:56:04.290Z,72.80
2018-09-12T05:58:36.194Z,72.90
2018-09-12T06:01:04.676Z,73.10
2018-09-12T06:03:33.804Z,73.20
2018-09-12T06:06:02.432Z,73.00
2018-09-12T06:08:30.984Z,72.80
2018-09-12T06:11:00.322Z,73.10
2018-09-12T06:13:29.207Z,73.20
2018-09-12T06:15:57.676Z,73.00
2018-09-12T06:18:26.133Z,73.10
2018-09-12T06:20:54.632Z,72.20
2018-09-12T06:23:23.063Z,73.00
2018-09-12T06:25:51.757Z,73.10
2018-09-12T06:28:20.231Z,73.10
2018-09-12T06:30:48.925Z,73.00
2018-09-12T06:33:17.260Z,73.00
2018-09-12T06:35:45.638Z,72.90
2018-09-12T06:38:14.135Z,71.60
2018-09-12T06:40:42.628Z,73.00
2018-09-12T06:43:11.076Z,72.90
2018-09-12T06:45:39.557Z,73.10
2018-09-12T06:48:07.931Z,72.80
2018-09-12T06:50:36.717Z,73.00
2018-09-12T06:53:05.285Z,72.50
2018-09-12T06:55:33.684Z,71.90
2018-09-12T06:58:02.076Z,72.50
2018-09-12T07:00:30.653Z,72.80
2018-09-12T07:02:59.172Z,72.30
2018-09-12T07:05:27.615Z,72.80
2018-09-12T07:08:00.583Z,73.00
2018-09-12T07:10:29.102Z,72.60
2018-09-12T07:12:57.960Z,72.50
2018-09-12T07:15:26.575Z,72.60
2018-09-12T07:17:55.197Z,72.00
2018-09-12T07:20:23.983Z,72.00
2018-09-12T07:22:52.699Z,71.60
2018-09-12T07:25:21.193Z,72.50
2018-09-12T07:27:49.560Z,71.70
2018-09-12T07:30:18.043Z,72.40
2018-09-12T07:32:46.818Z,71.60
2018-09-12T07:35:15.373Z,71.60
2018-09-12T07:37:43.792Z,72.40
2018-09-12T07:40:12.323Z,72.60
2018-09-12T07:42:40.748Z,71.40
2018-09-12T07:45:09.237Z,72.50
2018-09-12T07:47:37.781Z,72.40
2018-09-12T07:50:06.496Z,72.60
2018-09-12T07:52:34.848Z,71.90
2018-09-12T07:55:03.895Z,72.60
2018-09-12T07:57:32.542Z,72.70
2018-09-12T08:00:01.005Z,71.30
2018-09-12T08:02:29.497Z,72.60
2018-09-12T08:04:58.168Z,72.80
2018-09-12T08:07:26.585Z,72.80
2018-09-12T08:09:55.256Z,72.70
2018-09-12T08:12:23.745Z,72.90
2018-09-12T08:14:53.703Z,73.00
2018-09-12T08:17:22.061Z,72.90
2018-09-12T08:19:50.628Z,73.00
2018-09-12T08:22:19.337Z,72.20
2018-09-12T08:24:48.199Z,72.80
2018-09-12T08:27:16.803Z,71.60
2018-09-12T08:29:45.675Z,71.20
2018-09-12T08:32:14.362Z,72.40
2018-09-12T08:34:48.456Z,71.50
2018-09-12T08:37:17.028Z,72.60
2018-09-12T08:39:45.435Z,72.20
2018-09-12T08:42:13.911Z,71.00
2018-09-12T08:44:42.716Z,71.60
2018-09-12T08:47:11.280Z,71.10
2018-09-12T08:49:39.921Z,71.50
2018-09-12T08:52:08.472Z,70.80
2018-09-12T08:54:36.827Z,70.90
2018-09-12T08:57:05.201Z,70.70
2018-09-12T08:59:33.733Z,71.80
2018-09-12T09:02:02.162Z,72.40
2018-09-12T09:04:30.884Z,72.10
2018-09-12T09:06:59.368Z,70.80
2018-09-12T09:09:27.839Z,70.30
2018-09-12T09:11:56.276Z,71.40
2018-09-12T09:14:24.797Z,72.00
2018-09-12T09:16:54.527Z,71.60
2018-09-12T09:19:22.969Z,70.50
2018-09-12T09:21:51.424Z,70.30
2018-09-12T09:24:19.945Z,71.20
2018-09-12T09:26:48.388Z,71.70
2018-09-12T09:29:16.978Z,72.00
2018-09-12T09:31:45.364Z,70.50
2018-09-12T09:34:13.897Z,70.20
2018-09-12T09:36:42.309Z,70.50
2018-09-12T09:39:11.808Z,70.60
2018-09-12T09:41:40.680Z,70.60
2018-09-12T09:44:09.580Z,71.00
2018-09-12T09:46:38.155Z,71.10
2018-09-12T09:49:06.559Z,70.00
2018-09-12T09:51:35.304Z,69.80
2018-09-12T09:54:03.959Z,70.20
2018-09-12T09:56:32.351Z,70.60
2018-09-12T09:59:00.896Z,70.80
2018-09-12T10:01:34.612Z,70.00
2018-09-12T10:04:08.595Z,69.90
2018-09-12T10:06:42.293Z,70.00
2018-09-12T10:09:16.188Z,70.00
2018-09-12T10:11:44.623Z,69.80
2018-09-12T10:14:13.082Z,69.80
2018-09-12T10:16:41.771Z,70.10
2018-09-12T10:19:10.486Z,69.80
2018-09-12T10:21:39.203Z,69.90
2018-09-12T10:24:07.632Z,69.70
2018-09-12T10:26:36.121Z,69.70
2018-09-12T10:29:04.801Z,70.20
2018-09-12T10:31:33.272Z,69.80
2018-09-12T10:34:02.850Z,69.60
2018-09-12T10:36:31.236Z,69.60
2018-09-12T10:38:59.771Z,69.60
2018-09-12T10:41:28.228Z,69.70
2018-09-12T10:43:56.744Z,69.80
2018-09-12T10:46:25.149Z,69.70
2018-09-12T10:48:53.652Z,69.60
2018-09-12T10:51:22.283Z,69.60
2018-09-12T10:53:50.783Z,69.60
2018-09-12T10:56:19.341Z,69.70
2018-09-12T10:58:47.794Z,69.80
2018-09-12T11:01:16.247Z,69.70
2018-09-12T11:03:44.747Z,69.70
2018-09-12T11:06:13.185Z,69.70
2018-09-12T11:08:41.673Z,69.80
2018-09-12T11:11:10.161Z,69.90
2018-09-12T11:13:38.716Z,69.80
2018-09-12T11:16:12.437Z,69.90
2018-09-12T11:18:40.784Z,69.90
2018-09-12T11:21:09.783Z,70.00
2018-09-12T11:23:38.291Z,70.00
2018-09-12T11:26:06.936Z,70.00
2018-09-12T11:28:35.524Z,70.00
2018-09-12T11:31:04.076Z,70.00
2018-09-12T11:33:36.590Z,70.00
2018-09-12T11:36:05.337Z,70.00
2018-09-12T11:38:33.916Z,69.90
2018-09-12T11:41:02.636Z,70.00
2018-09-12T11:43:30.989Z,69.90
2018-09-12T11:45:59.929Z,69.90
2018-09-12T11:48:28.433Z,70.00
2018-09-12T11:50:56.852Z,70.00
2018-09-12T11:53:25.430Z,70.00
2018-09-12T11:55:54.064Z,70.00
2018-09-12T11:58:22.573Z,70.10
2018-09-12T12:00:51.042Z,70.00
2018-09-12T12:03:19.529Z,70.00
2018-09-12T12:05:48.248Z,70.00
2018-09-12T12:08:16.683Z,70.00
2018-09-12T12:10:45.235Z,70.10
2018-09-12T12:13:13.652Z,70.10
2018-09-12T12:15:42.105Z,70.10
2018-09-12T12:18:10.656Z,70.20
2018-09-12T12:20:39.044Z,70.20
2018-09-12T12:23:08.842Z,70.30
2018-09-12T12:25:37.264Z,70.20
2018-09-12T12:28:05.868Z,70.30
2018-09-12T12:30:34.324Z,70.20
2018-09-12T12:33:02.944Z,70.20
2018-09-12T12:35:31.467Z,70.30
2018-09-12T12:38:00.532Z,70.20
2018-09-12T12:40:29.040Z,70.30
2018-09-12T12:42:57.458Z,70.30
2018-09-12T12:45:25.925Z,70.30
2018-09-12T12:47:54.475Z,70.30
2018-09-12T12:50:22.940Z,70.30
2018-09-12T12:52:51.426Z,70.30
2018-09-12T12:55:19.924Z,70.40
2018-09-12T12:57:48.449Z,70.40
2018-09-12T13:00:17.046Z,70.40
2018-09-12T13:02:48.657Z,70.40
2018-09-12T13:05:17.508Z,70.40
2018-09-12T13:07:45.952Z,70.40
2018-09-12T13:10:14.404Z,70.40
2018-09-12T13:12:42.884Z,70.40
2018-09-12T13:15:11.361Z,70.40
2018-09-12T13:17:39.850Z,70.40
2018-09-12T13:20:08.228Z,70.40
2018-09-12T13:22:36.609Z,70.50
2018-09-12T13:25:06.239Z,70.50
2018-09-12T13:27:34.692Z,70.50
2018-09-12T13:30:03.115Z,70.50
2018-09-12T13:32:31.588Z,70.70
2018-09-12T13:35:00.069Z,70.70
2018-09-12T13:37:28.870Z,70.80
2018-09-12T13:39:57.287Z,70.90
2018-09-12T13:42:25.642Z,70.80
2018-09-12T13:44:54.180Z,71.20
2018-09-12T13:47:22.593Z,71.20
2018-09-12T13:49:50.965Z,71.30
2018-09-12T13:52:19.410Z,71.40
2018-09-12T13:54:47.872Z,71.60
2018-09-12T13:57:16.417Z,71.30
2018-09-12T13:59:48.627Z,71.60
2018-09-12T14:02:17.263Z,71.70
2018-09-12T14:04:45.724Z,71.40
2018-09-12T14:07:14.078Z,71.70
2018-09-12T14:09:42.639Z,71.40
2018-09-12T14:12:11.520Z,71.80
2018-09-12T14:14:40.252Z,72.00
2018-09-12T14:17:08.701Z,72.00
2018-09-12T14:19:42.497Z,72.10
2018-09-12T14:22:10.988Z,71.80
2018-09-12T14:24:39.561Z,72.30
2018-09-12T14:27:09.371Z,72.40
2018-09-12T14:29:37.872Z,72.50
2018-09-12T14:32:06.384Z,72.60
2018-09-12T14:34:34.838Z,72.60
2018-09-12T14:37:03.567Z,72.80
2018-09-12T14:39:32.023Z,72.30
2018-09-12T14:42:00.555Z,72.80
2018-09-12T14:44:29.120Z,72.90
2018-09-12T14:46:57.730Z,72.90
2018-09-12T14:49:26.148Z,72.60
2018-09-12T14:51:54.607Z,72.60
2018-09-12T14:54:23.120Z,73.10
2018-09-12T14:56:51.726Z,73.10
2018-09-12T14:59:20.254Z,73.10
2018-09-12T15:01:48.784Z,73.10
2018-09-12T15:04:17.256Z,73.10
2018-09-12T15:06:48.563Z,73.10
2018-09-12T15:09:17.028Z,72.90
2018-09-12T15:11:48.639Z,73.10
2018-09-12T15:14:18.710Z,73.10
2018-09-12T15:16:47.230Z,73.30
2018-09-12T15:19:15.690Z,73.30
2018-09-12T15:21:44.140Z,73.10
2018-09-12T15:24:12.615Z,73.30
2018-09-12T15:26:41.186Z,73.30
2018-09-12T15:29:09.973Z,73.30
2018-09-12T15:31:38.497Z,73.10
2018-09-12T15:34:07.140Z,73.30
2018-09-12T15:36:35.918Z,73.30
2018-09-12T15:39:06.371Z,73.30
2018-09-12T15:41:34.905Z,73.30
2018-09-12T15:44:03.516Z,73.10
2018-09-12T15:46:32.049Z,73.10
2018-09-12T15:49:00.472Z,73.30
2018-09-12T15:51:29.164Z,73.10
2018-09-12T15:53:57.552Z,73.10
2018-09-12T15:56:26.262Z,73.10
2018-09-12T15:58:54.648Z,73.10
2018-09-12T16:01:23.156Z,73.10
2018-09-12T16:03:51.876Z,73.10
2018-09-12T16:06:20.272Z,73.30
2018-09-12T16:08:48.715Z,73.30
2018-09-12T16:11:17.238Z,73.30
2018-09-12T16:13:45.704Z,73.30
2018-09-12T16:16:14.785Z,73.30
2018-09-12T16:18:43.307Z,73.50
2018-09-12T16:21:11.656Z,73.50
2018-09-12T16:23:40.062Z,73.60
2018-09-12T16:26:08.503Z,73.60
2018-09-12T16:28:37.017Z,73.60
2018-09-12T16:31:05.736Z,73.60
2018-09-12T16:33:36.886Z,73.80
2018-09-12T16:36:05.297Z,73.80
2018-09-12T16:38:33.849Z,73.90
2018-09-12T16:41:02.261Z,74.00
2018-09-12T16:43:30.640Z,74.00
2018-09-12T16:45:59.019Z,74.00
2018-09-12T16:48:27.669Z,74.10
2018-09-12T16:50:56.244Z,74.10
2018-09-12T16:53:24.682Z,74.20
2018-09-12T16:55:53.065Z,74.30
2018-09-12T16:58:21.504Z,74.40
2018-09-12T17:00:49.904Z,74.40
2018-09-12T17:03:18.275Z,74.40
2018-09-12T17:05:46.672Z,74.40
2018-09-12T17:08:15.093Z,74.50
2018-09-12T17:10:43.601Z,74.50
2018-09-12T17:13:12.132Z,74.60
2018-09-12T17:15:40.608Z,74.60
2018-09-12T17:18:09.440Z,74.70
2018-09-12T17:20:37.948Z,74.70
2018-09-12T17:23:06.417Z,74.70
2018-09-12T17:25:36.847Z,74.70
2018-09-12T17:28:05.294Z,74.70
2018-09-12T17:30:33.726Z,74.80
2018-09-12T17:33:02.439Z,74.80
2018-09-12T17:35:31.084Z,74.90
2018-09-12T17:37:59.578Z,74.90
2018-09-12T17:40:28.445Z,74.90
2018-09-12T17:42:57.259Z,74.90
2018-09-12T17:45:26.676Z,74.90
2018-09-12T17:47:55.075Z,75.00
2018-09-12T17:50:23.456Z,75.00
2018-09-12T17:52:51.820Z,75.00
2018-09-12T17:55:20.340Z,75.00
2018-09-12T17:57:48.850Z,75.10
2018-09-12T18:00:17.553Z,75.00
2018-09-12T18:02:46.058Z,75.10
2018-09-12T18:05:14.544Z,75.10
2018-09-12T18:07:43.208Z,75.10
2018-09-12T18:10:11.845Z,75.10
2018-09-12T18:12:40.333Z,75.10
2018-09-12T18:15:08.886Z,75.10
2018-09-12T18:17:37.340Z,75.20
2018-09-12T18:20:06.253Z,75.20
2018-09-12T18:22:34.653Z,75.10
2018-09-12T18:25:03.206Z,75.20
2018-09-12T18:27:31.892Z,75.20
2018-09-12T18:30:00.740Z,75.20
2018-09-12T18:32:29.196Z,75.20
2018-09-12T18:34:59.305Z,75.10
2018-09-12T18:37:27.849Z,75.20
2018-09-12T18:39:56.260Z,75.10
2018-09-12T18:42:24.788Z,75.20
2018-09-12T18:44:53.288Z,75.20
2018-09-12T18:47:21.775Z,75.10
2018-09-12T18:49:54.692Z,75.20
2018-09-12T18:52:23.188Z,75.20
2018-09-12T18:54:51.544Z,75.00
2018-09-12T18:57:19.956Z,75.10
2018-09-12T18:59:48.844Z,75.20
2018-09-12T19:02:17.382Z,75.20
2018-09-12T19:04:45.871Z,75.30
2018-09-12T19:07:14.397Z,75.20
2018-09-12T19:09:42.732Z,75.20
2018-09-12T19:12:11.252Z,75.00
2018-09-12T19:14:39.698Z,75.30
2018-09-12T19:17:08.184Z,75.30
2018-09-12T19:19:36.664Z,75.30
2018-09-12T19:22:05.793Z,75.30
2018-09-12T19:24:34.419Z,75.20
2018-09-12T19:27:02.941Z,75.10
2018-09-12T19:29:31.397Z,75.30
2018-09-12T19:31:59.889Z,75.30
2018-09-12T19:34:28.360Z,75.20
2018-09-12T19:36:56.783Z,75.20
2018-09-12T19:39:25.315Z,75.20
2018-09-12T19:41:53.818Z,75.30
2018-09-12T19:44:22.282Z,74.60
2018-09-12T19:46:50.822Z,75.20
2018-09-12T19:49:19.194Z,75.00
2018-09-12T19:51:47.551Z,75.30
2018-09-12T19:54:16.264Z,75.10
2018-09-12T19:56:44.643Z,75.10
2018-09-12T19:59:13.204Z,75.20
2018-09-12T20:01:48.123Z,75.30
2018-09-12T20:04:16.668Z,75.00
2018-09-12T20:06:45.253Z,74.90
2018-09-12T20:09:13.632Z,74.60
2018-09-12T20:11:42.256Z,75.00
2018-09-12T20:14:11.147Z,75.10
2018-09-12T20:16:39.768Z,75.20
2018-09-12T20:19:13.505Z,74.10
2018-09-12T20:21:42.220Z,75.30
2018-09-12T20:24:12.129Z,74.90
2018-09-12T20:26:40.612Z,75.20
2018-09-12T20:29:09.152Z,75.20
2018-09-12T20:31:37.596Z,74.40
2018-09-12T20:34:06.044Z,74.10
2018-09-12T20:36:34.564Z,75.00
2018-09-12T20:39:05.129Z,74.90
2018-09-12T20:41:33.500Z,74.30
2018-09-12T20:44:01.990Z,73.80
2018-09-12T20:46:30.559Z,75.10
2018-09-12T20:48:59.219Z,73.90
2018-09-12T20:51:27.700Z,74.90
2018-09-12T20:53:56.138Z,74.90
2018-09-12T20:56:24.600Z,74.40
2018-09-12T20:58:53.114Z,74.90
2018-09-12T21:01:21.652Z,74.20
2018-09-12T21:03:50.033Z,74.50
2018-09-12T21:06:18.412Z,74.80
2018-09-12T21:08:46.785Z,74.30
2018-09-12T21:11:15.189Z,75.00
2018-09-12T21:13:43.748Z,74.40
2018-09-12T21:16:12.235Z,74.50
2018-09-12T21:18:40.826Z,74.30
2018-09-12T21:21:09.380Z,74.50
2018-09-12T21:23:37.948Z,73.80
2018-09-12T21:26:07.357Z,75.20
2018-09-12T21:28:35.853Z,74.80
2018-09-12T21:31:04.354Z,74.40
2018-09-12T21:33:32.871Z,74.10
2018-09-12T21:36:01.411Z,74.50
2018-09-12T21:38:29.857Z,74.70
2018-09-12T21:40:58.440Z,74.70
2018-09-12T21:43:27.012Z,74.40
2018-09-12T21:45:55.501Z,74.20
2018-09-12T21:48:23.963Z,73.80
2018-09-12T21:50:52.375Z,74.30
2018-09-12T21:53:20.860Z,74.70
2018-09-12T21:55:49.237Z,74.80
2018-09-12T21:58:17.664Z,73.80
2018-09-12T22:00:46.172Z,74.60
2018-09-12T22:03:14.556Z,74.10
2018-09-12T22:05:43.086Z,74.40
2018-09-12T22:08:11.607Z,74.20
2018-09-12T22:10:40.061Z,74.50
2018-09-12T22:13:08.716Z,74.50
2018-09-12T22:15:37.187Z,74.80
2018-09-12T22:18:05.704Z,74.70
2018-09-12T22:20:34.142Z,74.30
2018-09-12T22:23:02.487Z,74.40
2018-09-12T22:25:30.831Z,74.20
2018-09-12T22:28:00.426Z,74.40
2018-09-12T22:30:28.945Z,74.70
2018-09-12T22:32:57.580Z,74.10
2018-09-12T22:35:26.065Z,74.90
2018-09-12T22:37:54.812Z,74.40
2018-09-12T22:40:23.269Z,74.80
2018-09-12T22:42:51.936Z,74.30
2018-09-12T22:45:20.462Z,74.40
2018-09-12T22:47:48.889Z,74.40
2018-09-12T22:50:17.238Z,74.70
2018-09-12T22:52:45.652Z,75.30
2018-09-12T22:55:14.132Z,75.00
2018-09-12T22:57:42.570Z,75.30
2018-09-12T23:00:11.065Z,74.40
2018-09-12T23:02:39.609Z,73.70
2018-09-12T23:05:08.032Z,75.00
2018-09-12T23:07:36.603Z,74.90
2018-09-12T23:10:05.181Z,75.20
2018-09-12T23:12:33.909Z,74.80
2018-09-12T23:15:02.272Z,74.90
2018-09-12T23:17:30.976Z,74.90
2018-09-12T23:20:00.056Z,74.40
2018-09-12T23:22:28.966Z,73.90
2018-09-12T23:24:57.559Z,74.40
2018-09-12T23:27:26.383Z,74.30
2018-09-12T23:29:54.898Z,74.10
2018-09-12T23:32:23.311Z,74.10
2018-09-12T23:34:51.720Z,73.90
2018-09-12T23:37:20.125Z,74.30
2018-09-12T23:39:48.580Z,74.20
2018-09-12T23:42:17.187Z,74.50
2018-09-12T23:44:45.749Z,74.20
2018-09-12T23:47:14.153Z,74.50
2018-09-12T23:49:42.750Z,74.10
2018-09-12T23:52:11.267Z,74.50
2018-09-12T23:54:39.668Z,74.00
2018-09-12T23:57:08.168Z,74.40
2018-09-12T23:59:36.874Z,73.60
